createdAt,value
2023-03-19T00:00:51.086Z,9.01
2023-03-19T00:03:37.857Z,8.94
2023-03-19T00:06:06.954Z,8.84
2023-03-19T00:08:34.689Z,8.74
2023-03-19T00:11:07.970Z,8.66
2023-03-19T00:13:35.921Z,8.61
2023-03-19T00:16:04.254Z,8.58
2023-03-19T00:18:32.157Z,8.54
2023-03-19T00:20:59.908Z,8.49
2023-03-19T00:23:27.713Z,8.45
2023-03-19T00:25:55.695Z,8.40
2023-03-19T00:28:23.639Z,8.37
2023-03-19T00:30:51.476Z,8.33
2023-03-19T00:33:20.473Z,8.28
2023-03-19T00:35:48.243Z,8.23
2023-03-19T00:38:16.311Z,8.19
2023-03-19T00:40:44.011Z,8.15
2023-03-19T00:43:12.279Z,8.11
2023-03-19T00:45:40.024Z,8.06
2023-03-19T00:48:08.140Z,8.04
2023-03-19T00:50:37.102Z,7.99
2023-03-19T00:53:05.139Z,7.92
2023-03-19T00:55:33.013Z,7.83
2023-03-19T00:58:01.017Z,7.74
2023-03-19T01:00:28.780Z,7.67
2023-03-19T01:02:56.698Z,7.60
2023-03-19T01:05:24.548Z,7.56
2023-03-19T01:07:52.362Z,7.51
2023-03-19T01:10:20.981Z,7.43
2023-03-19T01:12:49.250Z,7.38
2023-03-19T01:15:17.932Z,7.36
2023-03-19T01:17:47.142Z,7.34
2023-03-19T01:20:18.663Z,7.29
2023-03-19T01:22:46.593Z,7.26
2023-03-19T01:25:14.563Z,7.22
2023-03-19T01:27:42.765Z,7.19
2023-03-19T01:30:10.871Z,7.17
2023-03-19T01:32:38.659Z,7.15
2023-03-19T01:35:06.910Z,7.16
2023-03-19T01:37:34.581Z,7.14
2023-03-19T01:40:03.074Z,7.15
2023-03-19T01:42:30.805Z,7.18
2023-03-19T01:44:59.194Z,7.20
2023-03-19T01:47:35.963Z,7.26
2023-03-19T01:50:04.489Z,7.28
2023-03-19T01:52:34.299Z,7.30
2023-03-19T01:55:03.919Z,7.31
2023-03-19T01:57:32.316Z,7.28
2023-03-19T02:00:01.703Z,7.27
2023-03-19T02:02:31.851Z,7.26
2023-03-19T02:05:06.540Z,7.26
2023-03-19T02:07:35.136Z,7.26
2023-03-19T02:10:07.282Z,7.26
2023-03-19T02:12:35.328Z,7.25
2023-03-19T02:15:03.301Z,7.28
2023-03-19T02:17:32.590Z,7.28
2023-03-19T02:20:07.015Z,7.27
2023-03-19T02:22:36.849Z,7.27
2023-03-19T02:25:13.433Z,7.28
2023-03-19T02:27:41.479Z,7.28
2023-03-19T02:30:19.796Z,7.28
2023-03-19T02:32:47.814Z,7.26
2023-03-19T02:35:15.529Z,7.25
2023-03-19T02:37:43.330Z,7.24
2023-03-19T02:40:25.864Z,7.22
2023-03-19T02:42:54.367Z,7.20
2023-03-19T02:45:22.935Z,7.17
2023-03-19T02:47:50.742Z,7.15
2023-03-19T02:50:18.455Z,7.14
2023-03-19T02:52:46.405Z,7.14
2023-03-19T02:55:14.319Z,7.12
2023-03-19T02:57:42.076Z,7.11
2023-03-19T03:00:12.180Z,7.11
2023-03-19T03:02:40.038Z,7.11
2023-03-19T03:05:09.260Z,7.11
2023-03-19T03:07:37.623Z,7.11
2023-03-19T03:10:05.721Z,7.11
2023-03-19T03:12:33.404Z,7.12
2023-03-19T03:15:01.214Z,7.10
2023-03-19T03:17:29.446Z,7.06
2023-03-19T03:19:57.403Z,7.03
2023-03-19T03:22:25.204Z,7.01
2023-03-19T03:24:52.983Z,6.98
2023-03-19T03:27:20.675Z,6.96
2023-03-19T03:29:48.855Z,6.93
2023-03-19T03:32:16.728Z,6.89
2023-03-19T03:34:46.407Z,6.83
2023-03-19T03:37:14.181Z,6.75
2023-03-19T03:39:42.584Z,6.68
2023-03-19T03:42:10.602Z,6.59
2023-03-19T03:44:38.229Z,6.52
2023-03-19T03:47:06.765Z,6.44
2023-03-19T03:49:34.500Z,6.37
2023-03-19T03:52:03.043Z,6.32
2023-03-19T03:54:30.851Z,6.26
2023-03-19T03:56:58.654Z,6.21
2023-03-19T03:59:26.432Z,6.16
2023-03-19T04:01:54.244Z,6.10
2023-03-19T04:04:24.322Z,6.06
2023-03-19T04:06:52.998Z,6.00
2023-03-19T04:09:21.117Z,5.95
2023-03-19T04:11:51.335Z,5.89
2023-03-19T04:14:19.236Z,5.85
2023-03-19T04:16:47.131Z,5.81
2023-03-19T04:19:15.641Z,5.79
2023-03-19T04:21:44.937Z,5.77
2023-03-19T04:24:13.011Z,5.75
2023-03-19T04:26:40.870Z,5.74
2023-03-19T04:29:08.818Z,5.75
2023-03-19T04:31:37.251Z,5.76
2023-03-19T04:34:05.936Z,5.75
2023-03-19T04:36:34.124Z,5.76
2023-03-19T04:39:04.131Z,5.79
2023-03-19T04:41:32.600Z,5.82
2023-03-19T04:44:01.159Z,5.81
2023-03-19T04:46:29.319Z,5.78
2023-03-19T04:48:57.709Z,5.75
2023-03-19T04:51:25.463Z,5.70
2023-03-19T04:53:53.301Z,5.66
2023-03-19T04:56:21.092Z,5.60
2023-03-19T04:58:48.952Z,5.57
2023-03-19T05:01:17.215Z,5.55
2023-03-19T05:03:45.073Z,5.50
2023-03-19T05:06:12.856Z,5.47
2023-03-19T05:08:40.793Z,5.44
2023-03-19T05:11:08.648Z,5.40
2023-03-19T05:13:36.472Z,5.35
2023-03-19T05:16:04.469Z,5.33
2023-03-19T05:18:33.559Z,5.31
2023-03-19T05:21:01.233Z,5.29
2023-03-19T05:23:30.327Z,5.28
2023-03-19T05:26:00.061Z,5.27
2023-03-19T05:28:33.704Z,5.23
2023-03-19T05:31:01.504Z,5.21
2023-03-19T05:33:29.466Z,5.18
2023-03-19T05:35:58.420Z,5.14
2023-03-19T05:38:26.627Z,5.10
2023-03-19T05:40:54.325Z,5.06
2023-03-19T05:43:22.408Z,5.03
2023-03-19T05:45:51.188Z,5.00
2023-03-19T05:48:18.990Z,4.97
2023-03-19T05:50:47.213Z,4.94
2023-03-19T05:53:15.088Z,4.92
2023-03-19T05:55:43.114Z,4.89
2023-03-19T05:58:11.256Z,4.88
2023-03-19T06:00:39.082Z,4.87
2023-03-19T06:03:07.489Z,4.85
2023-03-19T06:05:35.401Z,4.85
2023-03-19T06:08:03.220Z,4.85
2023-03-19T06:10:31.417Z,4.90
2023-03-19T06:12:59.229Z,4.94
2023-03-19T06:15:27.951Z,4.99
2023-03-19T06:17:55.709Z,5.02
2023-03-19T06:20:27.111Z,5.06
2023-03-19T06:22:55.309Z,5.14
2023-03-19T06:25:23.074Z,5.19
2023-03-19T06:27:50.952Z,5.26
2023-03-19T06:30:18.728Z,5.30
2023-03-19T06:32:47.100Z,5.32
2023-03-19T06:35:14.967Z,5.33
2023-03-19T06:37:42.760Z,5.37
2023-03-19T06:40:10.883Z,5.42
2023-03-19T06:42:38.772Z,5.47
2023-03-19T06:45:07.744Z,5.52
2023-03-19T06:47:35.561Z,5.55
2023-03-19T06:50:04.514Z,5.57
2023-03-19T06:52:32.174Z,5.60
2023-03-19T06:55:00.121Z,5.62
2023-03-19T06:57:27.937Z,5.62
2023-03-19T06:59:55.846Z,5.62
2023-03-19T07:02:23.552Z,5.61
2023-03-19T07:04:52.389Z,5.59
2023-03-19T07:07:20.355Z,5.60
2023-03-19T07:09:48.137Z,5.61
2023-03-19T07:12:16.022Z,5.64
2023-03-19T07:14:43.823Z,5.64
2023-03-19T07:17:11.690Z,5.64
2023-03-19T07:19:39.482Z,5.62
2023-03-19T07:22:07.240Z,5.63
2023-03-19T07:24:34.926Z,5.63
2023-03-19T07:27:03.311Z,5.63
2023-03-19T07:29:31.281Z,5.64
2023-03-19T07:31:59.269Z,5.62
2023-03-19T07:34:27.465Z,5.62
2023-03-19T07:36:55.688Z,5.65
2023-03-19T07:39:23.496Z,5.67
2023-03-19T07:41:51.279Z,5.72
2023-03-19T07:44:19.185Z,5.74
2023-03-19T07:46:49.001Z,5.76
2023-03-19T07:49:17.317Z,5.81
2023-03-19T07:51:45.083Z,5.84
2023-03-19T07:54:13.041Z,5.87
2023-03-19T07:56:41.220Z,5.91
2023-03-19T07:59:09.136Z,5.95
2023-03-19T08:01:37.146Z,5.98
2023-03-19T08:04:05.270Z,6.04
2023-03-19T08:06:33.677Z,6.08
2023-03-19T08:09:01.581Z,6.13
2023-03-19T08:11:30.097Z,6.18
2023-03-19T08:13:59.671Z,6.26
2023-03-19T08:16:27.787Z,6.36
2023-03-19T08:18:55.621Z,6.43
2023-03-19T08:21:23.381Z,6.54
2023-03-19T08:23:51.240Z,6.63
2023-03-19T08:26:19.675Z,6.71
2023-03-19T08:28:47.548Z,6.79
2023-03-19T08:31:15.443Z,6.83
2023-03-19T08:33:43.227Z,6.85
2023-03-19T08:36:12.684Z,6.93
2023-03-19T08:38:40.975Z,7.00
2023-03-19T08:41:09.165Z,7.09
2023-03-19T08:43:37.481Z,7.20
2023-03-19T08:46:06.031Z,7.31
2023-03-19T08:48:34.118Z,7.39
2023-03-19T08:51:02.744Z,7.42
2023-03-19T08:53:31.273Z,7.52
2023-03-19T08:56:00.669Z,7.60
2023-03-19T08:58:28.537Z,7.66
2023-03-19T09:01:06.248Z,7.71
2023-03-19T09:03:34.666Z,7.77
2023-03-19T09:06:03.045Z,7.84
2023-03-19T09:08:31.276Z,7.87
2023-03-19T09:10:59.186Z,7.93
2023-03-19T09:13:27.280Z,8.02
2023-03-19T09:15:56.500Z,8.10
2023-03-19T09:18:25.586Z,8.17
2023-03-19T09:20:54.266Z,8.20
2023-03-19T09:23:22.673Z,8.26
2023-03-19T09:25:51.280Z,8.35
2023-03-19T09:28:19.434Z,8.43
2023-03-19T09:30:48.017Z,8.49
2023-03-19T09:33:16.647Z,8.57
2023-03-19T09:35:49.099Z,8.68
2023-03-19T09:38:16.793Z,8.82
2023-03-19T09:40:47.034Z,8.96
2023-03-19T09:43:26.391Z,8.99
2023-03-19T09:45:54.455Z,8.95
2023-03-19T09:48:35.988Z,8.93
2023-03-19T09:51:06.957Z,8.90
2023-03-19T09:53:35.675Z,8.88
2023-03-19T09:56:05.712Z,8.92
2023-03-19T09:58:35.083Z,8.99
2023-03-19T10:01:04.153Z,9.05
2023-03-19T10:03:50.654Z,9.15
2023-03-19T10:06:18.330Z,9.24
2023-03-19T10:09:04.723Z,9.30
2023-03-19T10:11:38.759Z,9.37
2023-03-19T10:14:23.573Z,9.47
2023-03-19T10:16:53.141Z,9.57
2023-03-19T10:19:23.962Z,9.63
2023-03-19T10:22:12.744Z,9.58
2023-03-19T10:24:43.222Z,9.61
2023-03-19T10:27:14.100Z,9.72
2023-03-19T10:29:42.157Z,9.82
2023-03-19T10:32:19.304Z,9.86
2023-03-19T10:34:53.954Z,9.88
2023-03-19T10:37:23.353Z,9.85
2023-03-19T10:39:52.867Z,9.89
2023-03-19T10:42:20.745Z,9.87
2023-03-19T10:44:56.844Z,9.91
2023-03-19T10:47:27.816Z,9.96
2023-03-19T10:49:56.768Z,10.06
2023-03-19T10:52:27.447Z,10.18
2023-03-19T10:54:56.931Z,10.23
2023-03-19T10:57:29.076Z,10.27
2023-03-19T11:00:04.500Z,10.37
2023-03-19T11:02:32.511Z,10.43
2023-03-19T11:05:23.441Z,10.46
2023-03-19T11:08:02.060Z,10.45
2023-03-19T11:10:31.729Z,10.41
2023-03-19T11:13:07.419Z,10.50
2023-03-19T11:15:37.429Z,10.67
2023-03-19T11:18:08.427Z,10.81
2023-03-19T11:20:38.036Z,10.82
2023-03-19T11:23:20.324Z,10.94
2023-03-19T11:25:48.213Z,10.99
2023-03-19T11:28:19.801Z,11.08
2023-03-19T11:31:08.468Z,11.26
2023-03-19T11:34:06.376Z,11.50
2023-03-19T11:36:41.455Z,11.65
2023-03-19T11:39:15.715Z,11.72
2023-03-19T11:41:54.037Z,11.86
2023-03-19T11:44:48.166Z,12.02
2023-03-19T11:47:38.564Z,12.02
2023-03-19T11:50:19.492Z,11.97
2023-03-19T11:52:48.008Z,11.92
2023-03-19T11:55:37.019Z,11.92
2023-03-19T11:58:16.290Z,11.86
2023-03-19T12:00:48.785Z,11.76
2023-03-19T12:03:28.646Z,11.67
2023-03-19T12:06:08.570Z,11.59
2023-03-19T12:08:45.453Z,11.53
2023-03-19T12:11:24.974Z,11.59
2023-03-19T12:13:52.711Z,11.54
2023-03-19T12:16:26.394Z,11.44
2023-03-19T12:18:54.171Z,11.40
2023-03-19T12:21:37.649Z,11.38
2023-03-19T12:24:16.562Z,11.36
2023-03-19T12:26:47.530Z,11.38
2023-03-19T12:29:24.492Z,11.48
2023-03-19T12:32:05.510Z,11.57
2023-03-19T12:34:33.509Z,11.61
2023-03-19T12:37:07.124Z,11.66
2023-03-19T12:39:37.513Z,11.67
2023-03-19T12:42:06.391Z,11.62
2023-03-19T12:44:39.189Z,11.58
2023-03-19T12:47:12.960Z,11.52
2023-03-19T12:49:48.398Z,11.45
2023-03-19T12:52:29.006Z,11.44
2023-03-19T12:55:17.034Z,11.50
2023-03-19T12:57:49.802Z,11.62
2023-03-19T13:00:39.051Z,11.75
2023-03-19T13:03:25.658Z,11.81
2023-03-19T13:06:08.673Z,11.89
2023-03-19T13:08:45.083Z,11.95
2023-03-19T13:11:16.042Z,12.02
2023-03-19T13:13:59.038Z,12.18
2023-03-19T13:16:32.671Z,12.21
2023-03-19T13:19:26.598Z,12.19
2023-03-19T13:21:57.062Z,12.19
2023-03-19T13:24:38.783Z,12.24
2023-03-19T13:27:07.540Z,12.30
2023-03-19T13:29:36.942Z,12.21
2023-03-19T13:32:06.884Z,12.10
2023-03-19T13:34:36.609Z,12.02
2023-03-19T13:37:10.673Z,11.96
2023-03-19T13:39:39.045Z,11.93
2023-03-19T13:42:10.189Z,11.93
2023-03-19T13:44:43.015Z,11.94
2023-03-19T13:47:25.795Z,11.97
2023-03-19T13:50:15.938Z,12.04
2023-03-19T13:52:43.835Z,12.17
2023-03-19T13:55:32.253Z,12.25
2023-03-19T13:58:12.598Z,12.35
2023-03-19T14:00:46.643Z,12.65
2023-03-19T14:03:20.217Z,12.88
2023-03-19T14:05:49.959Z,12.85
2023-03-19T14:08:22.772Z,12.73
2023-03-19T14:10:52.971Z,12.58
2023-03-19T14:13:41.228Z,12.47
2023-03-19T14:16:17.268Z,12.43
2023-03-19T14:18:45.318Z,12.58
2023-03-19T14:21:21.852Z,12.65
2023-03-19T14:23:54.987Z,12.58
2023-03-19T14:26:29.398Z,12.50
2023-03-19T14:29:03.462Z,12.41
2023-03-19T14:31:43.310Z,12.35
2023-03-19T14:34:11.337Z,12.28
2023-03-19T14:36:46.476Z,12.15
2023-03-19T14:39:25.116Z,12.09
2023-03-19T14:41:59.894Z,12.07
2023-03-19T14:44:37.536Z,12.11
2023-03-19T14:47:17.108Z,12.12
2023-03-19T14:49:44.827Z,12.08
2023-03-19T14:52:31.407Z,11.99
2023-03-19T14:55:13.346Z,11.85
2023-03-19T14:57:41.350Z,11.70
2023-03-19T15:00:14.361Z,11.61
2023-03-19T15:02:43.844Z,11.51
2023-03-19T15:05:21.412Z,11.45
2023-03-19T15:07:50.715Z,11.62
2023-03-19T15:10:20.036Z,11.82
2023-03-19T15:12:54.376Z,11.98
2023-03-19T15:15:22.366Z,11.96
2023-03-19T15:18:10.683Z,11.90
2023-03-19T15:20:50.992Z,11.79
2023-03-19T15:23:33.214Z,11.68
2023-03-19T15:26:04.007Z,11.60
2023-03-19T15:28:37.552Z,11.56
2023-03-19T15:31:28.671Z,11.51
2023-03-19T15:33:54.974Z,11.50
2023-03-19T15:36:27.259Z,11.41
2023-03-19T15:38:57.473Z,11.38
2023-03-19T15:41:26.764Z,11.37
2023-03-19T15:43:55.254Z,11.28
2023-03-19T15:46:25.278Z,11.15
2023-03-19T15:48:58.754Z,11.06
2023-03-19T15:51:53.444Z,10.96
2023-03-19T15:54:22.494Z,10.93
2023-03-19T15:56:51.733Z,10.89
2023-03-19T15:59:21.858Z,10.80
2023-03-19T16:01:51.096Z,10.72
2023-03-19T16:04:24.214Z,10.72
2023-03-19T16:06:52.442Z,10.70
2023-03-19T16:09:24.365Z,10.67
2023-03-19T16:11:53.089Z,10.63
2023-03-19T16:14:31.181Z,10.58
2023-03-19T16:17:00.929Z,10.58
2023-03-19T16:19:33.968Z,10.60
2023-03-19T16:22:22.814Z,10.64
2023-03-19T16:24:51.948Z,10.67
2023-03-19T16:27:21.771Z,10.69
2023-03-19T16:29:57.250Z,10.77
2023-03-19T16:32:27.168Z,10.79
2023-03-19T16:35:04.288Z,10.75
2023-03-19T16:37:35.500Z,10.69
2023-03-19T16:40:26.518Z,10.62
2023-03-19T16:42:56.264Z,10.55
2023-03-19T16:45:31.121Z,10.55
2023-03-19T16:48:03.691Z,10.54
2023-03-19T16:50:40.042Z,10.54
2023-03-19T16:53:16.044Z,10.54
2023-03-19T16:55:44.063Z,10.55
2023-03-19T16:58:16.540Z,10.54
2023-03-19T17:00:44.925Z,10.51
2023-03-19T17:03:20.840Z,10.49
2023-03-19T17:05:48.998Z,10.47
2023-03-19T17:08:18.781Z,10.44
2023-03-19T17:10:49.409Z,10.38
2023-03-19T17:13:28.777Z,10.33
2023-03-19T17:16:02.570Z,10.29
2023-03-19T17:18:38.757Z,10.28
2023-03-19T17:21:09.338Z,10.28
2023-03-19T17:23:38.110Z,10.27
2023-03-19T17:26:16.831Z,10.26
2023-03-19T17:28:44.864Z,10.27
2023-03-19T17:31:20.945Z,10.27
2023-03-19T17:33:49.314Z,10.23
2023-03-19T17:36:17.159Z,10.20
2023-03-19T17:38:44.903Z,10.18
2023-03-19T17:41:14.031Z,10.15
2023-03-19T17:43:44.294Z,10.11
2023-03-19T17:46:18.156Z,10.07
2023-03-19T17:48:47.321Z,10.03
2023-03-19T17:51:15.878Z,9.98
2023-03-19T17:53:46.311Z,9.95
2023-03-19T17:56:16.692Z,9.91
2023-03-19T17:58:45.067Z,9.86
2023-03-19T18:01:18.383Z,9.80
2023-03-19T18:03:46.730Z,9.74
2023-03-19T18:06:16.728Z,9.69
2023-03-19T18:08:44.970Z,9.64
2023-03-19T18:11:13.422Z,9.58
2023-03-19T18:13:44.622Z,9.53
2023-03-19T18:16:15.385Z,9.47
2023-03-19T18:18:43.150Z,9.40
2023-03-19T18:21:13.722Z,9.35
2023-03-19T18:23:42.767Z,9.30
2023-03-19T18:26:12.086Z,9.26
2023-03-19T18:28:39.941Z,9.21
2023-03-19T18:31:16.872Z,9.15
2023-03-19T18:33:46.986Z,9.12
2023-03-19T18:36:21.389Z,9.08
2023-03-19T18:38:50.672Z,9.05
2023-03-19T18:41:19.731Z,9.01
2023-03-19T18:43:47.649Z,8.97
2023-03-19T18:46:19.686Z,8.96
2023-03-19T18:48:47.680Z,8.93
2023-03-19T18:51:15.543Z,8.91
2023-03-19T18:53:43.568Z,8.90
2023-03-19T18:56:18.243Z,8.90
2023-03-19T18:58:46.224Z,8.89
2023-03-19T19:01:17.599Z,8.88
2023-03-19T19:03:46.414Z,8.88
2023-03-19T19:06:20.430Z,8.89
2023-03-19T19:08:49.282Z,8.89
2023-03-19T19:11:17.645Z,8.88
2023-03-19T19:13:55.671Z,8.87
2023-03-19T19:16:27.175Z,8.83
2023-03-19T19:18:55.336Z,8.80
2023-03-19T19:21:23.255Z,8.77
2023-03-19T19:23:51.187Z,8.74
2023-03-19T19:26:23.963Z,8.70
2023-03-19T19:28:53.028Z,8.66
2023-03-19T19:31:28.457Z,8.62
2023-03-19T19:33:57.100Z,8.59
2023-03-19T19:36:25.351Z,8.55
2023-03-19T19:38:53.199Z,8.52
2023-03-19T19:41:24.453Z,8.48
2023-03-19T19:43:55.662Z,8.45
2023-03-19T19:46:23.899Z,8.42
2023-03-19T19:48:51.850Z,8.39
2023-03-19T19:51:21.427Z,8.37
2023-03-19T19:53:49.782Z,8.34
2023-03-19T19:56:19.200Z,8.32
2023-03-19T19:58:47.856Z,8.32
2023-03-19T20:01:17.098Z,8.31
2023-03-19T20:03:47.320Z,8.30
2023-03-19T20:06:16.513Z,8.30
2023-03-19T20:08:44.366Z,8.30
2023-03-19T20:11:17.886Z,8.32
2023-03-19T20:13:51.512Z,8.35
2023-03-19T20:16:19.884Z,8.38
2023-03-19T20:18:47.824Z,8.39
2023-03-19T20:21:16.067Z,8.41
2023-03-19T20:23:44.722Z,8.40
2023-03-19T20:26:13.752Z,8.42
2023-03-19T20:28:41.930Z,8.44
2023-03-19T20:31:16.435Z,8.45
2023-03-19T20:33:44.415Z,8.45
2023-03-19T20:36:15.744Z,8.45
2023-03-19T20:38:43.999Z,8.45
2023-03-19T20:41:18.502Z,8.43
2023-03-19T20:43:47.134Z,8.45
2023-03-19T20:46:15.937Z,8.46
2023-03-19T20:48:43.850Z,8.47
2023-03-19T20:51:17.426Z,8.47
2023-03-19T20:53:45.951Z,8.49
2023-03-19T20:56:15.940Z,8.50
2023-03-19T20:58:44.423Z,8.50
2023-03-19T21:01:13.378Z,8.52
2023-03-19T21:03:41.495Z,8.52
2023-03-19T21:06:15.624Z,8.52
2023-03-19T21:08:44.745Z,8.53
2023-03-19T21:11:19.697Z,8.52
2023-03-19T21:13:48.398Z,8.52
2023-03-19T21:16:20.755Z,8.52
2023-03-19T21:18:49.393Z,8.52
2023-03-19T21:21:18.645Z,8.52
2023-03-19T21:24:06.810Z,8.50
2023-03-19T21:26:39.252Z,8.50
2023-03-19T21:29:11.022Z,8.48
2023-03-19T21:31:38.876Z,8.46
2023-03-19T21:34:07.021Z,8.45
2023-03-19T21:36:34.708Z,8.46
2023-03-19T21:39:02.532Z,8.48
2023-03-19T21:41:36.013Z,8.49
2023-03-19T21:44:05.705Z,8.50
2023-03-19T21:46:34.006Z,8.52
2023-03-19T21:49:01.861Z,8.53
2023-03-19T21:51:29.711Z,8.54
2023-03-19T21:53:58.518Z,8.54
2023-03-19T21:56:46.523Z,8.54
2023-03-19T21:59:21.484Z,8.54
2023-03-19T22:01:49.409Z,8.54
2023-03-19T22:04:19.288Z,8.54
2023-03-19T22:06:47.220Z,8.53
2023-03-19T22:09:14.995Z,8.52
2023-03-19T22:11:43.225Z,8.51
2023-03-19T22:14:27.127Z,8.49
2023-03-19T22:16:55.655Z,8.46
2023-03-19T22:19:23.927Z,8.42
2023-03-19T22:21:52.030Z,8.40
2023-03-19T22:24:20.117Z,8.38
2023-03-19T22:26:51.024Z,8.37
2023-03-19T22:29:20.858Z,8.34
2023-03-19T22:31:49.450Z,8.33
2023-03-19T22:34:18.558Z,8.29
2023-03-19T22:36:46.366Z,8.27
2023-03-19T22:39:14.341Z,8.25
2023-03-19T22:41:45.514Z,8.24
2023-03-19T22:44:19.418Z,8.22
2023-03-19T22:46:47.140Z,8.21
2023-03-19T22:49:16.638Z,8.18
2023-03-19T22:51:47.465Z,8.17
2023-03-19T22:54:15.726Z,8.14
2023-03-19T22:56:43.577Z,8.12
2023-03-19T22:59:11.561Z,8.11
2023-03-19T23:01:41.715Z,8.10
2023-03-19T23:04:31.711Z,8.08
2023-03-19T23:07:01.629Z,8.07
2023-03-19T23:09:29.660Z,8.04
2023-03-19T23:11:59.532Z,8.02
2023-03-19T23:14:30.904Z,8.00
2023-03-19T23:17:06.566Z,7.99
2023-03-19T23:19:35.371Z,7.98
2023-03-19T23:22:05.113Z,7.97
2023-03-19T23:24:33.830Z,7.96
2023-03-19T23:27:02.422Z,7.96
2023-03-19T23:29:32.606Z,7.97
2023-03-19T23:32:00.572Z,7.98
2023-03-19T23:34:28.816Z,7.98
2023-03-19T23:36:58.151Z,7.98
2023-03-19T23:39:26.441Z,7.99
2023-03-19T23:41:55.803Z,7.98
2023-03-19T23:44:23.756Z,7.96
2023-03-19T23:46:51.805Z,7.94
2023-03-19T23:49:29.776Z,7.91
2023-03-19T23:51:58.000Z,7.88
2023-03-19T23:54:25.718Z,7.85
2023-03-19T23:56:53.631Z,7.82
2023-03-19T23:59:21.632Z,7.80
